EHAMEKAH

Guest
Details From EHAM - Schiphol
To EKAH - Aarhus
Flight Number -
Tags generated
Created
Modified
Stats Distance 319 nm / 591 km
Max Altitude 35,000 ft / 10,668 m
Waypoints 6
Social Downloads 2
Likes 0
Share VATSIM

Download

Looking for another format? Having issues loading an existing format? Contact us
Advertisement - Login to hide

Notes

Basic altitude profile: - Ascent Rate: 2500ft/min - Ascent Speed: 250kts - Cruise Altitude: 35000ft - Cruise Speed: 420kts - Descent Rate: 1500ft/min - Descent Speed: 250kts Options: - Use NATs: yes - Use PACOTS: yes - Use low airways: yes - Use high airways: yes

Route

EHAM LABIL UN873 JUIST UP729 DOSUR EKAH

ID Type Via Altitude Latitude Longitude Leg Dist Tot Dist Heading (true) Name
O EHAM APT - 0 ft / 0 m 52.31485˚ 4.75812˚ - 0 nm - Schiphol
LABIL FIX - 35,000 ft / 10,668 m 53.49583˚ 6.81648˚ 102 nm 102 nm 46° / 47° -
JUIST FIX UN873 (AWY-HI) 35,000 ft / 10,668 m 53.56278˚ 6.92000˚ 5 nm 108 nm 43° / 43° -
DHE VOR UP729 (AWY-HI) 33,200 ft / 10,119 m 54.18569˚ 7.91070˚ 51 nm 159 nm 43° / 44° HELGOLAND VOR-DME
DOSUR FIX UP729 (AWY-HI) 25,000 ft / 7,620 m 54.85861˚ 9.19417˚ 60 nm 219 nm 47° / 48° -
O EKAH APT - 0 ft / 0 m 56.30426˚ 10.61945˚ 99 nm 319 nm 29° / 30° Aarhus

Altitude Profile

Advertisement - Login to hide

Weather


0- 5 10 15 20 25 30 35+ Temperature / ° C

Clouds and Precipitation
Forecast for 2018-05-21 06:00 UTC. Updated 2 hours ago

Ground ~20,000 ft ~40,000 ft Winds

EHAM

Details ICAO EHAM (AMS)
Name Schiphol
Region Netherlands
Timezone Europe/Amsterdam (UTC+2.0)
Stats Elevation -11 ft / -3 m (AMSL)
Location 52.314850° 4.758121°
Runways 6
Magnetic Variation 1.192° E

METAR

EHAM 210725Z 08008KT 050V110 CAVOK 18/09 Q1017 NOSIG

Decode

TAF

TAF EHAM 210443Z 2106/2212 08007KT CAVOK BECMG 2109/2112 09013KT BECMG 2118/2121 06005KT

Decode

Departure Runways

ID Width Length Bearing (true) Bearing (mag) Surface Threshold Offset Overrun Length
04 148 ft / 45 m 6,620 ft / 2,018 m 41.18° 39.99° Asphalt 0 ft / 0 m 0 ft / 0 m
06 161 ft / 49 m 11,439 ft / 3,487 m 57.80° 56.61° Asphalt 820 ft / 250 m 0 ft / 0 m
09 164 ft / 50 m 11,310 ft / 3,447 m 86.77° 85.58° Asphalt 384 ft / 117 m 0 ft / 0 m
18C 161 ft / 49 m 10,842 ft / 3,305 m 183.20° 182.01° Asphalt 0 ft / 0 m 0 ft / 0 m
18L 164 ft / 50 m 11,146 ft / 3,397 m 183.17° 181.98° Asphalt 1,857 ft / 566 m 0 ft / 0 m
18R 184 ft / 56 m 12,497 ft / 3,809 m 183.16° 181.97° Asphalt 886 ft / 270 m 0 ft / 0 m
22 148 ft / 45 m 6,620 ft / 2,018 m 221.20° 220.01° Asphalt 0 ft / 0 m 915 ft / 279 m
24 161 ft / 49 m 11,439 ft / 3,487 m 237.83° 236.64° Asphalt 0 ft / 0 m 0 ft / 0 m
27 164 ft / 50 m 11,310 ft / 3,447 m 266.81° 265.62° Asphalt 0 ft / 0 m 0 ft / 0 m
36C 161 ft / 49 m 10,842 ft / 3,305 m 3.20° 2.01° Asphalt 1,476 ft / 450 m 0 ft / 0 m
36L 184 ft / 56 m 12,497 ft / 3,809 m 3.16° 1.97° Asphalt 0 ft / 0 m 0 ft / 0 m
36R 164 ft / 50 m 11,146 ft / 3,397 m 3.17° 1.98° Asphalt 0 ft / 0 m 0 ft / 0 m

EKAH

Details ICAO EKAH (AAR)
Name Aarhus
Region Denmark / Faroe Islands
Timezone Europe/Copenhagen (UTC+2.0)
Stats Elevation 82 ft / 25 m (AMSL)
Location 56.304265° 10.619452°
Runways 2
Magnetic Variation 3.117° E

METAR

EKAH 210720Z AUTO 13007KT 100V160 9999NDV NCD 16/07 Q1027

Decode

TAF

TAF EKAH 210512Z 2106/2206 11008KT CAVOK= TAF EKBI 210512Z 2106/2206 10010KT CAVOK

Decode

Destination Runways

ID Width Length Bearing (true) Bearing (mag) Surface Threshold Offset Overrun Length
10L 75 ft / 23 m 9,081 ft / 2,768 m 100.30° 97.18° Asphalt 0 ft / 0 m 0 ft / 0 m
10R 148 ft / 45 m 8,837 ft / 2,693 m 100.29° 97.17° Asphalt 0 ft / 0 m 902 ft / 275 m
28L 148 ft / 45 m 8,837 ft / 2,693 m 280.33° 277.21° Asphalt 0 ft / 0 m 738 ft / 225 m
28R 75 ft / 23 m 9,081 ft / 2,768 m 280.34° 277.22° Asphalt 0 ft / 0 m 0 ft / 0 m

Approach Navaids

Runway Type Ident Frequency Range Bearing (true) Bearing (mag) Slope Elevation
10R Localiser AAR 111.90 MHz 18 nm / 33 km 100.33° 97.21° - 82 ft / 25 m (AMSL)
10R Glidescope AAR 111.90 MHz 10 nm / 19 km 100.31° 97.19° 2.75° 82 ft / 25 m (AMSL)
28L Localiser TR 111.10 MHz 18 nm / 33 km 280.29° 277.17° - 82 ft / 25 m (AMSL)
28L Glidescope TR 111.10 MHz 10 nm / 19 km 280.31° 277.19° 2.75° 82 ft / 25 m (AMSL)
28L DME TR 111.10 MHz 18 nm / 33 km - - - 79 ft / 24 m (AMSL)

Popular Alternatives